createdAt,value
2018-04-11T00:02:02.902Z,12.40
2018-04-11T00:04:30.978Z,12.40
2018-04-11T00:06:59.052Z,12.30
2018-04-11T00:09:27.117Z,12.30
2018-04-11T00:11:55.966Z,12.20
2018-04-11T00:14:24.166Z,12.20
2018-04-11T00:16:52.222Z,12.10
2018-04-11T00:19:20.293Z,12.00
2018-04-11T00:21:53.977Z,12.00
2018-04-11T00:24:24.213Z,11.90
2018-04-11T00:26:53.061Z,11.90
2018-04-11T00:29:21.862Z,11.90
2018-04-11T00:31:49.917Z,11.90
2018-04-11T00:34:18.010Z,11.90
2018-04-11T00:36:46.093Z,11.90
2018-04-11T00:39:14.150Z,11.80
2018-04-11T00:41:42.255Z,11.80
2018-04-11T00:44:10.321Z,11.70
2018-04-11T00:46:38.370Z,11.70
2018-04-11T00:49:06.469Z,11.70
2018-04-11T00:51:34.518Z,11.60
2018-04-11T00:54:02.594Z,11.60
2018-04-11T00:56:30.672Z,11.60
2018-04-11T00:58:58.772Z,11.60
2018-04-11T01:01:26.842Z,11.60
2018-04-11T01:03:54.919Z,11.60
2018-04-11T01:06:22.982Z,11.60
2018-04-11T01:08:51.066Z,11.60
2018-04-11T01:11:22.130Z,11.60
2018-04-11T01:13:50.980Z,11.60
2018-04-11T01:16:19.051Z,11.60
2018-04-11T01:18:47.147Z,11.50
2018-04-11T01:21:15.221Z,11.50
2018-04-11T01:23:45.245Z,11.40
2018-04-11T01:26:13.321Z,11.40
2018-04-11T01:28:41.373Z,11.50
2018-04-11T01:31:09.437Z,11.40
2018-04-11T01:33:37.526Z,11.40
2018-04-11T01:36:05.597Z,11.40
2018-04-11T01:38:33.640Z,11.40
2018-04-11T01:41:01.730Z,11.50
2018-04-11T01:43:29.786Z,11.50
2018-04-11T01:45:57.834Z,11.40
2018-04-11T01:48:25.934Z,11.50
2018-04-11T01:50:54.010Z,11.50
2018-04-11T01:53:22.082Z,11.60
2018-04-11T01:55:50.187Z,11.60
2018-04-11T01:58:18.214Z,11.60
2018-04-11T02:00:46.280Z,11.60
2018-04-11T02:03:14.344Z,11.60
2018-04-11T02:05:42.393Z,11.70
2018-04-11T02:11:05.985Z,11.70
2018-04-11T02:13:34.047Z,11.80
2018-04-11T02:16:05.997Z,11.80
2018-04-11T02:18:34.070Z,11.80
2018-04-11T02:21:02.142Z,11.90
2018-04-11T02:23:30.989Z,11.80
2018-04-11T02:25:59.085Z,11.80
2018-04-11T02:28:27.914Z,11.80
2018-04-11T02:30:56.761Z,11.80
2018-04-11T02:33:24.846Z,11.80
2018-04-11T02:35:52.914Z,11.80
2018-04-11T02:38:21.006Z,11.70
2018-04-11T02:40:49.086Z,11.70
2018-04-11T02:43:17.153Z,11.70
2018-04-11T02:45:45.226Z,11.80
2018-04-11T02:48:13.303Z,11.80
2018-04-11T02:50:42.113Z,11.80
2018-04-11T02:53:10.227Z,11.80
2018-04-11T02:55:38.307Z,11.80
2018-04-11T02:58:06.378Z,11.80
2018-04-11T03:00:35.421Z,11.80
2018-04-11T03:03:03.492Z,11.80
2018-04-11T03:05:31.571Z,11.90
2018-04-11T03:07:59.651Z,11.80
2018-04-11T03:10:27.722Z,11.80
2018-04-11T03:12:55.794Z,11.80
2018-04-11T03:15:23.878Z,11.80
2018-04-11T03:17:51.962Z,11.70
2018-04-11T03:20:20.042Z,11.70
2018-04-11T03:22:48.138Z,11.70
2018-04-11T03:25:16.194Z,11.70
2018-04-11T03:27:45.038Z,11.70
2018-04-11T03:30:13.138Z,11.70
2018-04-11T03:32:41.254Z,11.70
2018-04-11T03:35:09.335Z,11.70
2018-04-11T03:37:38.154Z,11.70
2018-04-11T03:40:06.253Z,11.70
2018-04-11T03:42:34.310Z,11.70
2018-04-11T03:45:02.398Z,11.80
2018-04-11T03:47:30.473Z,11.80
2018-04-11T03:49:58.553Z,11.80
2018-04-11T03:52:26.618Z,11.80
2018-04-11T03:54:54.697Z,11.80
2018-04-11T03:57:22.769Z,11.80
2018-04-11T03:59:50.817Z,11.80
2018-04-11T04:02:21.810Z,11.70
2018-04-11T04:04:49.909Z,11.70
2018-04-11T04:07:17.996Z,11.70
2018-04-11T04:09:46.078Z,11.70
2018-04-11T04:12:14.171Z,11.70
2018-04-11T04:14:54.825Z,11.70
2018-04-11T04:17:34.788Z,11.70
2018-04-11T04:20:28.605Z,11.70
2018-04-11T04:22:56.701Z,11.70
2018-04-11T04:25:24.777Z,11.70
2018-04-11T04:27:52.858Z,11.70
2018-04-11T04:30:20.942Z,11.80
2018-04-11T04:32:48.992Z,11.70
2018-04-11T04:35:17.114Z,11.70
2018-04-11T04:37:45.201Z,11.70
2018-04-11T04:40:13.270Z,11.70
2018-04-11T04:42:41.346Z,11.70
2018-04-11T04:45:09.438Z,11.70
2018-04-11T04:47:37.510Z,11.70
2018-04-11T04:50:05.594Z,11.60
2018-04-11T04:52:33.705Z,11.60
2018-04-11T04:55:01.807Z,11.60
2018-04-11T04:57:29.853Z,11.60
2018-04-11T04:59:57.969Z,11.60
2018-04-11T05:02:26.003Z,11.60
2018-04-11T05:04:54.081Z,11.60
2018-04-11T05:07:22.179Z,11.70
2018-04-11T05:09:50.233Z,11.70
2018-04-11T05:12:18.279Z,11.70
2018-04-11T05:14:46.374Z,11.60
2018-04-11T05:17:14.450Z,11.60
2018-04-11T05:19:42.526Z,11.70
2018-04-11T05:22:10.613Z,11.70
2018-04-11T05:24:38.689Z,11.70
2018-04-11T05:27:06.757Z,11.60
2018-04-11T05:29:35.665Z,11.60
2018-04-11T05:32:10.747Z,11.60
2018-04-11T05:34:38.826Z,11.60
2018-04-11T05:37:06.905Z,11.60
2018-04-11T05:39:35.006Z,11.50
2018-04-11T05:42:03.046Z,11.50
2018-04-11T05:44:31.142Z,11.50
2018-04-11T05:46:59.994Z,11.50
2018-04-11T05:49:28.055Z,11.50
2018-04-11T05:51:56.154Z,11.50
2018-04-11T05:54:24.217Z,11.50
2018-04-11T05:56:52.291Z,11.50
2018-04-11T05:59:20.523Z,11.50
2018-04-11T06:01:48.585Z,11.40
2018-04-11T06:04:16.666Z,11.40
2018-04-11T06:06:44.766Z,11.40
2018-04-11T06:09:12.838Z,11.40
2018-04-11T06:11:43.033Z,11.40
2018-04-11T06:14:12.026Z,11.30
2018-04-11T06:16:42.230Z,11.40
2018-04-11T06:19:17.053Z,11.40
2018-04-11T06:21:45.133Z,11.40
2018-04-11T06:24:13.978Z,11.30
2018-04-11T06:26:42.066Z,11.40
2018-04-11T06:29:10.130Z,11.40
2018-04-11T06:31:38.206Z,11.40
2018-04-11T06:34:06.320Z,11.40
2018-04-11T06:36:34.397Z,11.40
2018-04-11T06:39:02.490Z,11.40
2018-04-11T06:41:30.566Z,11.40
2018-04-11T06:43:58.621Z,11.40
2018-04-11T06:46:26.702Z,11.40
2018-04-11T06:48:54.773Z,11.40
2018-04-11T06:51:23.624Z,11.40
2018-04-11T06:53:51.693Z,11.40
2018-04-11T06:56:19.759Z,11.40
2018-04-11T06:58:47.846Z,11.40
2018-04-11T07:01:16.118Z,11.40
2018-04-11T07:03:44.214Z,11.40
2018-04-11T07:06:12.273Z,11.40
2018-04-11T07:08:41.162Z,11.40
2018-04-11T07:11:10.011Z,11.50
2018-04-11T07:13:38.080Z,11.50
2018-04-11T07:16:06.978Z,11.50
2018-04-11T07:18:35.064Z,11.50
2018-04-11T07:21:03.142Z,11.50
2018-04-11T07:23:31.222Z,11.50
2018-04-11T07:25:59.360Z,11.50
2018-04-11T07:28:28.146Z,11.50
2018-04-11T07:30:56.226Z,11.50
2018-04-11T07:33:24.294Z,11.50
2018-04-11T07:35:52.338Z,11.40
2018-04-11T07:38:20.444Z,11.50
2018-04-11T07:40:48.514Z,11.40
2018-04-11T07:43:18.598Z,11.40
2018-04-11T07:45:46.650Z,11.40
2018-04-11T07:48:14.718Z,11.40
2018-04-11T07:50:42.786Z,11.40
2018-04-11T07:53:10.877Z,11.50
2018-04-11T07:55:38.957Z,11.50
2018-04-11T07:58:07.026Z,11.50
2018-04-11T08:00:35.159Z,11.50
2018-04-11T08:03:08.108Z,11.60
2018-04-11T08:05:36.149Z,11.70
2018-04-11T08:08:04.978Z,11.70
2018-04-11T08:10:33.050Z,11.70
2018-04-11T08:13:01.129Z,11.70
2018-04-11T08:15:29.202Z,11.70
2018-04-11T08:17:57.262Z,11.80
2018-04-11T08:20:25.343Z,11.80
2018-04-11T08:22:53.434Z,11.80
2018-04-11T08:25:21.510Z,11.90
2018-04-11T08:27:54.637Z,11.90
2018-04-11T08:30:22.726Z,11.90
2018-04-11T08:32:50.814Z,11.90
2018-04-11T08:35:18.887Z,12.00
2018-04-11T08:37:46.986Z,12.10
2018-04-11T08:40:15.826Z,12.00
2018-04-11T08:42:43.936Z,12.00
2018-04-11T08:45:11.978Z,11.90
2018-04-11T08:47:40.046Z,11.90
2018-04-11T08:50:08.123Z,11.90
2018-04-11T08:52:42.109Z,11.90
2018-04-11T08:55:10.939Z,11.80
2018-04-11T08:57:39.038Z,11.80
2018-04-11T09:00:07.129Z,11.80
2018-04-11T09:02:35.224Z,11.80
2018-04-11T09:05:04.080Z,11.80
2018-04-11T09:07:32.123Z,11.80
2018-04-11T09:10:00.193Z,11.80
2018-04-11T09:12:28.233Z,11.80
2018-04-11T09:15:07.941Z,11.90
2018-04-11T09:17:36.014Z,11.90
2018-04-11T09:20:04.085Z,12.00
2018-04-11T09:22:38.033Z,12.00
2018-04-11T09:25:06.118Z,12.00
2018-04-11T09:27:34.957Z,12.10
2018-04-11T09:30:03.021Z,12.10
2018-04-11T09:32:48.990Z,12.20
2018-04-11T09:35:17.078Z,12.30
2018-04-11T09:37:45.153Z,12.40
2018-04-11T09:40:13.246Z,12.40
2018-04-11T09:42:41.394Z,12.40
2018-04-11T09:45:09.418Z,12.40
2018-04-11T09:47:37.497Z,12.50
2018-04-11T09:50:05.568Z,12.50
2018-04-11T09:52:45.567Z,12.50
2018-04-11T09:55:13.670Z,12.50
2018-04-11T09:57:41.738Z,12.50
2018-04-11T10:00:09.769Z,12.50
2018-04-11T10:02:37.825Z,12.50
2018-04-11T10:05:05.867Z,12.60
2018-04-11T10:07:34.674Z,12.90
2018-04-11T10:10:03.558Z,12.90
2018-04-11T10:12:32.370Z,13.10
2018-04-11T10:15:00.413Z,13.10
2018-04-11T10:17:28.461Z,13.10
2018-04-11T10:19:56.514Z,13.30
2018-04-11T10:22:24.572Z,13.30
2018-04-11T10:24:52.664Z,13.40
2018-04-11T10:27:20.718Z,13.50
2018-04-11T10:29:48.789Z,13.60
2018-04-11T10:32:16.922Z,13.70
2018-04-11T10:34:45.761Z,14.20
2018-04-11T10:37:13.820Z,14.20
2018-04-11T10:39:49.731Z,14.40
2018-04-11T10:42:17.777Z,14.70
2018-04-11T10:44:45.830Z,15.00
2018-04-11T10:47:13.914Z,15.30
2018-04-11T10:49:41.997Z,15.50
2018-04-11T10:52:10.062Z,15.40
2018-04-11T10:54:38.129Z,15.20
2018-04-11T10:57:06.205Z,15.00
2018-04-11T10:59:35.238Z,15.10
2018-04-11T11:02:04.087Z,15.00
2018-04-11T11:04:32.158Z,15.00
2018-04-11T11:07:00.221Z,15.00
2018-04-11T11:09:28.297Z,15.10
2018-04-11T11:11:56.342Z,15.10
2018-04-11T11:14:25.500Z,15.10
2018-04-11T11:16:53.590Z,15.00
2018-04-11T11:19:21.665Z,14.80
2018-04-11T11:21:49.738Z,14.70
2018-04-11T11:24:21.785Z,14.70
2018-04-11T11:26:49.885Z,14.70
2018-04-11T11:29:17.963Z,14.70
2018-04-11T11:31:46.041Z,14.70
2018-04-11T11:34:14.090Z,14.60
2018-04-11T11:36:42.162Z,14.50
2018-04-11T11:39:11.045Z,14.30
2018-04-11T11:41:39.062Z,14.30
2018-04-11T11:44:07.130Z,14.40
2018-04-11T11:46:35.206Z,14.50
2018-04-11T11:49:03.281Z,14.50
2018-04-11T11:51:31.369Z,14.50
2018-04-11T11:53:59.427Z,14.50
2018-04-11T11:56:27.500Z,14.60
2018-04-11T11:58:55.692Z,14.60
2018-04-11T12:01:23.635Z,14.60
2018-04-11T12:03:51.717Z,14.70
2018-04-11T12:06:19.789Z,14.70
2018-04-11T12:08:47.840Z,14.70
2018-04-11T12:11:15.926Z,14.70
2018-04-11T12:13:43.991Z,14.70
2018-04-11T12:16:12.065Z,14.70
2018-04-11T12:18:40.130Z,14.70
2018-04-11T12:21:08.189Z,14.80
2018-04-11T12:23:36.270Z,14.90
2018-04-11T12:26:04.357Z,14.90
2018-04-11T12:28:32.430Z,14.90
2018-04-11T12:31:00.506Z,14.90
2018-04-11T12:33:28.581Z,15.00
2018-04-11T12:35:56.633Z,15.00
2018-04-11T12:38:30.397Z,15.10
2018-04-11T12:40:58.473Z,15.20
2018-04-11T12:43:26.518Z,15.20
2018-04-11T12:45:55.414Z,15.20
2018-04-11T12:48:23.498Z,15.30
2018-04-11T12:50:51.573Z,15.30
2018-04-11T12:53:19.641Z,15.40
2018-04-11T12:55:47.718Z,15.40
2018-04-11T12:58:23.561Z,15.40
2018-04-11T13:00:51.642Z,15.50
2018-04-11T13:03:19.714Z,15.60
2018-04-11T13:05:47.781Z,15.70
2018-04-11T13:08:15.858Z,15.80
2018-04-11T13:10:43.930Z,15.90
2018-04-11T13:13:11.989Z,15.90
2018-04-11T13:15:40.064Z,16.00
2018-04-11T13:18:08.135Z,16.00
2018-04-11T13:20:36.206Z,16.10
2018-04-11T13:23:04.293Z,16.00
2018-04-11T13:25:32.351Z,16.00
2018-04-11T13:28:00.425Z,15.90
2018-04-11T13:30:28.498Z,15.90
2018-04-11T13:32:56.579Z,16.00
2018-04-11T13:35:24.642Z,16.10
2018-04-11T13:37:52.698Z,16.10
2018-04-11T13:40:20.773Z,16.20
2018-04-11T13:42:48.845Z,16.40
2018-04-11T13:45:16.919Z,16.60
2018-04-11T13:47:44.989Z,16.80
2018-04-11T13:50:14.009Z,17.00
2018-04-11T13:52:42.095Z,17.00
2018-04-11T13:55:10.161Z,17.00
2018-04-11T13:57:38.233Z,17.10
2018-04-11T14:00:06.309Z,17.10
2018-04-11T14:02:34.388Z,17.00
2018-04-11T14:05:02.458Z,17.00
2018-04-11T14:07:31.299Z,17.00
2018-04-11T14:09:59.373Z,17.00
2018-04-11T14:12:27.442Z,17.10
2018-04-11T14:14:55.540Z,17.10
2018-04-11T14:17:23.608Z,17.20
2018-04-11T14:19:51.723Z,17.20
2018-04-11T14:22:19.769Z,17.30
2018-04-11T14:24:47.838Z,17.50
2018-04-11T14:27:15.898Z,17.60
2018-04-11T14:29:44.012Z,17.60
2018-04-11T14:32:12.041Z,17.60
2018-04-11T14:34:40.126Z,17.40
2018-04-11T14:37:10.153Z,17.30
2018-04-11T14:39:38.213Z,17.30
2018-04-11T14:42:06.285Z,17.30
2018-04-11T14:44:34.362Z,17.30
2018-04-11T14:47:02.425Z,17.30
2018-04-11T14:49:34.535Z,17.40
2018-04-11T14:52:02.578Z,17.50
2018-04-11T14:54:30.647Z,17.60
2018-04-11T14:56:58.753Z,17.70
2018-04-11T14:59:26.834Z,17.80
2018-04-11T15:01:54.906Z,18.10
2018-04-11T15:04:23.874Z,18.40
2018-04-11T15:06:51.996Z,18.80
2018-04-11T15:09:19.998Z,19.40
2018-04-11T15:11:48.074Z,20.30
2018-04-11T15:14:16.114Z,20.70
2018-04-11T15:16:44.157Z,21.00
2018-04-11T15:19:12.247Z,20.30
2018-04-11T15:21:40.366Z,19.60
2018-04-11T15:24:08.393Z,19.10
2018-04-11T15:26:36.466Z,18.80
2018-04-11T15:29:04.536Z,18.60
2018-04-11T15:31:32.606Z,18.50
2018-04-11T15:34:00.695Z,18.50
2018-04-11T15:36:28.758Z,18.40
2018-04-11T15:38:56.863Z,18.30
2018-04-11T15:41:24.930Z,18.20
2018-04-11T15:43:59.762Z,18.20
2018-04-11T15:46:37.318Z,18.30
2018-04-11T15:49:05.377Z,18.40
2018-04-11T15:51:33.421Z,18.50
2018-04-11T15:54:01.495Z,18.50
2018-04-11T15:56:30.352Z,18.60
2018-04-11T15:58:59.169Z,18.60
2018-04-11T16:01:27.257Z,18.60
2018-04-11T16:03:56.090Z,18.90
2018-04-11T16:06:24.161Z,18.80
2018-04-11T16:08:52.242Z,19.00
2018-04-11T16:11:21.062Z,19.00
2018-04-11T16:13:50.185Z,19.00
2018-04-11T16:16:18.262Z,18.90
2018-04-11T16:18:46.331Z,18.90
2018-04-11T16:21:15.183Z,18.90
2018-04-11T16:23:43.228Z,18.80
2018-04-11T16:26:11.289Z,18.80
2018-04-11T16:28:39.390Z,18.90
2018-04-11T16:31:07.454Z,18.80
2018-04-11T16:33:35.525Z,18.70
2018-04-11T16:36:03.614Z,18.90
2018-04-11T16:38:31.685Z,19.60
2018-04-11T16:40:59.754Z,19.80
2018-04-11T16:43:27.818Z,19.50
2018-04-11T16:45:55.873Z,19.20
2018-04-11T16:48:23.970Z,19.10
2018-04-11T16:50:52.047Z,18.90
2018-04-11T16:53:20.122Z,19.00
2018-04-11T16:55:48.170Z,19.30
2018-04-11T16:58:16.240Z,20.50
2018-04-11T17:00:44.312Z,21.70
2018-04-11T17:03:12.396Z,22.80
2018-04-11T17:05:40.474Z,23.80
2018-04-11T17:08:08.538Z,24.00
2018-04-11T17:10:36.614Z,24.30
2018-04-11T17:13:04.678Z,24.50
2018-04-11T17:15:32.766Z,24.90
2018-04-11T17:18:00.811Z,25.20
2018-04-11T17:20:40.677Z,25.40
2018-04-11T17:23:20.511Z,25.50
2018-04-11T17:26:00.351Z,25.80
2018-04-11T17:28:40.298Z,25.80
2018-04-11T17:31:20.174Z,25.20
2018-04-11T17:33:48.246Z,25.00
2018-04-11T17:36:16.305Z,24.30
2018-04-11T17:38:44.371Z,24.20
2018-04-11T17:41:12.446Z,23.80
2018-04-11T17:43:40.481Z,23.20
2018-04-11T17:46:08.561Z,22.70
2018-04-11T17:48:36.618Z,22.30
2018-04-11T17:51:04.694Z,21.60
2018-04-11T17:53:32.770Z,21.00
2018-04-11T17:56:00.838Z,20.30
2018-04-11T17:58:28.905Z,19.80
2018-04-11T18:00:56.987Z,19.10
2018-04-11T18:03:25.034Z,18.60
2018-04-11T18:05:53.104Z,18.20
2018-04-11T18:08:21.229Z,17.90
2018-04-11T18:10:49.219Z,17.60
2018-04-11T18:13:17.258Z,17.40
2018-04-11T18:15:50.205Z,17.20
2018-04-11T18:18:18.242Z,17.00
2018-04-11T18:20:46.290Z,16.90
2018-04-11T18:23:14.333Z,16.70
2018-04-11T18:25:42.369Z,16.60
2018-04-11T18:28:10.415Z,16.40
2018-04-11T18:30:38.474Z,16.20
2018-04-11T18:33:06.518Z,16.10
2018-04-11T18:35:34.555Z,16.00
2018-04-11T18:38:14.211Z,15.80
2018-04-11T18:40:42.250Z,15.80
2018-04-11T18:43:10.318Z,15.70
2018-04-11T18:45:38.356Z,15.60
2018-04-11T18:48:07.162Z,15.40
2018-04-11T18:50:35.586Z,15.40
2018-04-11T18:53:04.402Z,15.20
2018-04-11T18:55:32.450Z,15.20
2018-04-11T18:58:00.513Z,15.10
2018-04-11T19:00:28.590Z,15.00
2018-04-11T19:03:00.486Z,15.00
2018-04-11T19:05:28.521Z,14.90
2018-04-11T19:07:56.558Z,14.80
2018-04-11T19:10:24.622Z,14.80
2018-04-11T19:12:52.661Z,14.70
2018-04-11T19:15:20.702Z,14.60
2018-04-11T19:17:48.868Z,14.60
2018-04-11T19:20:16.886Z,14.50
2018-04-11T19:22:44.938Z,14.50
2018-04-11T19:25:13.041Z,14.40
2018-04-11T19:27:41.039Z,14.40
2018-04-11T19:30:09.076Z,14.40
2018-04-11T19:32:37.142Z,14.40
2018-04-11T19:35:05.186Z,14.30
2018-04-11T19:37:33.262Z,14.30
2018-04-11T19:40:01.335Z,14.20
2018-04-11T19:42:29.390Z,14.20
2018-04-11T19:44:57.434Z,14.10
2018-04-11T19:47:25.558Z,14.10
2018-04-11T19:49:54.411Z,14.00
2018-04-11T19:52:23.194Z,14.00
2018-04-11T19:54:51.274Z,13.90
2018-04-11T19:57:19.309Z,14.00
2018-04-11T19:59:48.274Z,13.90
2018-04-11T20:02:16.334Z,13.90
2018-04-11T20:04:44.404Z,13.80
2018-04-11T20:07:12.458Z,13.90
2018-04-11T20:09:40.529Z,13.80
2018-04-11T20:12:08.634Z,13.80
2018-04-11T20:14:36.657Z,13.80
2018-04-11T20:17:04.712Z,13.70
2018-04-11T20:19:32.774Z,13.70
2018-04-11T20:22:00.818Z,13.70
2018-04-11T20:24:28.878Z,13.60
2018-04-11T20:26:57.078Z,13.60
2018-04-11T20:29:25.122Z,13.60
2018-04-11T20:31:53.172Z,13.60
2018-04-11T20:34:21.214Z,13.60
2018-04-11T20:36:50.026Z,13.50
2018-04-11T20:39:18.101Z,13.50
2018-04-11T20:41:46.142Z,13.50
2018-04-11T20:44:14.181Z,13.50
2018-04-11T20:46:42.246Z,13.50
2018-04-11T20:49:10.314Z,13.50
2018-04-11T20:51:38.353Z,13.40
2018-04-11T20:54:06.417Z,13.40
2018-04-11T20:56:35.234Z,13.40
2018-04-11T20:59:03.282Z,13.30
2018-04-11T21:01:31.326Z,13.30
2018-04-11T21:03:59.407Z,13.30
2018-04-11T21:06:27.453Z,13.30
2018-04-11T21:08:55.517Z,13.20
2018-04-11T21:11:23.558Z,13.20
2018-04-11T21:13:51.594Z,13.20
2018-04-11T21:16:19.645Z,13.20
2018-04-11T21:18:47.706Z,13.10
2018-04-11T21:21:15.746Z,13.10
2018-04-11T21:23:43.810Z,13.10
2018-04-11T21:26:11.850Z,13.10
2018-04-11T21:28:46.850Z,13.10
2018-04-11T21:31:14.898Z,13.10
2018-04-11T21:33:42.974Z,13.00
2018-04-11T21:36:11.053Z,13.00
2018-04-11T21:38:39.098Z,13.00
2018-04-11T21:41:07.133Z,12.90
2018-04-11T21:43:35.191Z,12.90
2018-04-11T21:46:03.226Z,12.80
2018-04-11T21:48:31.262Z,12.80
2018-04-11T21:50:59.345Z,12.80
2018-04-11T21:53:27.374Z,12.80
2018-04-11T21:55:55.419Z,12.80
2018-04-11T21:58:23.483Z,12.80
2018-04-11T22:00:51.522Z,12.80
2018-04-11T22:03:26.614Z,12.80
2018-04-11T22:05:54.651Z,12.80
2018-04-11T22:08:22.695Z,12.90
2018-04-11T22:10:50.801Z,12.90
2018-04-11T22:13:18.845Z,12.80
2018-04-11T22:15:46.894Z,12.80
2018-04-11T22:18:14.942Z,12.80
2018-04-11T22:20:42.998Z,12.70
2018-04-11T22:23:11.030Z,12.70
2018-04-11T22:25:39.082Z,12.70
2018-04-11T22:28:07.126Z,12.70
2018-04-11T22:30:35.169Z,12.70
2018-04-11T22:33:03.230Z,12.80
2018-04-11T22:35:32.047Z,12.80
2018-04-11T22:38:00.142Z,12.90
2018-04-11T22:40:28.154Z,12.90
2018-04-11T22:42:56.209Z,12.90
2018-04-11T22:45:24.242Z,12.80
2018-04-11T22:47:52.316Z,12.80
2018-04-11T22:50:20.345Z,12.80
2018-04-11T22:52:49.166Z,12.80
2018-04-11T22:55:17.230Z,12.70
2018-04-11T22:57:45.268Z,12.70
2018-04-11T23:00:13.320Z,12.70
2018-04-11T23:02:42.138Z,12.60
2018-04-11T23:05:10.957Z,12.50
2018-04-11T23:07:39.030Z,12.50
2018-04-11T23:10:07.069Z,12.40
2018-04-11T23:12:35.113Z,12.30
2018-04-11T23:15:03.170Z,12.30
2018-04-11T23:17:31.228Z,12.30
2018-04-11T23:19:59.286Z,12.30
2018-04-11T23:22:27.322Z,12.20
2018-04-11T23:24:55.366Z,12.20
2018-04-11T23:27:23.406Z,12.10
2018-04-11T23:29:55.323Z,12.10
2018-04-11T23:32:23.390Z,12.10
2018-04-11T23:34:51.457Z,12.10
2018-04-11T23:37:19.517Z,12.10
2018-04-11T23:39:47.658Z,12.10
2018-04-11T23:42:15.619Z,12.10
2018-04-11T23:44:43.673Z,12.10
2018-04-11T23:47:12.483Z,12.10
2018-04-11T23:49:40.517Z,12.10
2018-04-11T23:52:08.568Z,12.20
2018-04-11T23:54:36.617Z,12.20
2018-04-11T23:57:04.658Z,12.20
2018-04-11T23:59:32.714Z,12.20
